Time;durP1;ratioP1;P1;durP2;ratioP2;P2;SDS_P1;SDS_P2;PMS_P1;PMS_P2;Temp;Humidity;BMP_temperature;BMP_pressure;BME280_temperature;BME280_humidity;BME280_pressure;Samples;Min_cycle;Max_cycle;Signal;HPM_P1;HPM_P2
2021/04/04 00:01:10;;;;;;;54.47;15.57;;;;;;;;;;5094598;28;20028;-65
2021/04/04 00:03:36;;;;;;;57.90;17.27;;;;;;;;;;5094783;28;20118;-65
2021/04/04 00:06:01;;;;;;;56.00;15.93;;;;;;;;;;5094467;28;20493;-65
2021/04/04 00:08:26;;;;;;;54.92;15.60;;;;;;;;;;5094577;28;20435;-65
2021/04/04 00:10:52;;;;;;;49.95;15.27;;;;;;;;;;5094466;28;20070;-66
2021/04/04 00:13:17;;;;;;;49.85;15.13;;;;;;;;;;5094508;28;20024;-65
2021/04/04 00:15:42;;;;;;;47.30;15.38;;;;;;;;;;5094267;28;20028;-65
2021/04/04 00:18:08;;;;;;;63.03;16.88;;;;;;;;;;5094405;28;20479;-65
2021/04/04 00:20:33;;;;;;;57.60;17.42;;;;;;;;;;5094425;28;20103;-65
2021/04/04 00:22:59;;;;;;;52.00;16.58;;;;;;;;;;5098159;28;20112;-66
2021/04/04 00:25:24;;;;;;;56.95;16.17;;;;;;;;;;5114679;28;20051;-65
2021/04/04 00:27:49;;;;;;;65.32;16.95;;;;;;;;;;5114715;28;20146;-65
2021/04/04 00:30:16;;;;;;;57.42;16.48;;;;;;;;;;5114513;28;20028;-65
2021/04/04 00:32:42;;;;;;;55.70;15.98;;;;;;;;;;5102037;28;20111;-65
2021/04/04 00:35:09;;;;;;;52.17;15.95;;;;;;;;;;5094074;28;20103;-65
2021/04/04 00:37:36;;;;;;;52.25;16.17;;;;;;;;;;5093994;28;20031;-65
2021/04/04 00:40:03;;;;;;;59.03;16.42;;;;;;;;;;5093428;28;20796;-65
2021/04/04 00:42:28;;;;;;;49.25;16.05;;;;;;;;;;5093157;28;20488;-65
2021/04/04 00:44:54;;;;;;;53.70;17.02;;;;;;;;;;5093920;28;20075;-66
2021/04/04 00:47:19;;;;;;;57.05;16.25;;;;;;;;;;5093775;28;20040;-65
2021/04/04 00:49:44;;;;;;;54.58;16.67;;;;;;;;;;5093842;28;20102;-65
2021/04/04 00:52:10;;;;;;;58.58;15.73;;;;;;;;;;5093675;28;20032;-65
2021/04/04 00:54:35;;;;;;;53.58;15.13;;;;;;;;;;5075631;28;20062;-66
2021/04/04 00:57:00;;;;;;;50.22;15.63;;;;;;;;;;5090838;28;20516;-66
2021/04/04 00:59:26;;;;;;;43.35;13.65;;;;;;;;;;5092764;28;20032;-65
2021/04/04 01:01:51;;;;;;;45.63;15.25;;;;;;;;;;5091841;28;20048;-65
2021/04/04 01:04:16;;;;;;;57.75;15.95;;;;;;;;;;5093163;28;20095;-65
2021/04/04 01:06:42;;;;;;;46.53;15.48;;;;;;;;;;5093371;28;20027;-66
2021/04/04 01:09:07;;;;;;;58.25;16.48;;;;;;;;;;5093489;28;20490;-65
2021/04/04 01:11:41;;;;;;;48.85;14.60;;;;;;;;;;5093405;28;20012;-65
2021/04/04 01:14:06;;;;;;;54.83;16.02;;;;;;;;;;5093321;28;20061;-65
2021/04/04 01:16:37;;;;;;;61.67;17.42;;;;;;;;;;5093430;28;20460;-65
2021/04/04 01:19:05;;;;;;;45.42;15.73;;;;;;;;;;5093372;28;20043;-65
2021/04/04 01:21:33;;;;;;;61.80;16.58;;;;;;;;;;5093346;28;20118;-65
2021/04/04 01:23:58;;;;;;;53.10;15.32;;;;;;;;;;5105866;28;20047;-65
2021/04/04 01:26:32;;;;;;;57.92;16.33;;;;;;;;;;5113561;28;20337;-65
2021/04/04 01:28:58;;;;;;;52.70;15.63;;;;;;;;;;5113529;28;20063;-66
2021/04/04 01:31:24;;;;;;;60.65;15.57;;;;;;;;;;5113558;28;20063;-65
2021/04/04 01:33:51;;;;;;;56.70;16.08;;;;;;;;;;5113616;28;20020;-65
2021/04/04 01:36:17;;;;;;;52.22;16.75;;;;;;;;;;5113111;28;20501;-65
2021/04/04 01:38:43;;;;;;;61.17;17.52;;;;;;;;;;5113458;28;20048;-65
2021/04/04 01:41:08;;;;;;;60.63;16.67;;;;;;;;;;5113325;28;20019;-65
2021/04/04 01:43:34;;;;;;;48.05;15.00;;;;;;;;;;5113525;28;20035;-65
2021/04/04 01:46:00;;;;;;;59.03;16.73;;;;;;;;;;5113363;28;20463;-65
2021/04/04 01:48:26;;;;;;;69.90;16.63;;;;;;;;;;5113511;28;20022;-65
2021/04/04 01:50:52;;;;;;;52.78;15.55;;;;;;;;;;5113144;28;20027;-65
2021/04/04 01:53:17;;;;;;;58.85;16.00;;;;;;;;;;5113393;28;20070;-65
2021/04/04 01:55:43;;;;;;;58.80;15.48;;;;;;;;;;5116917;28;20008;-65
2021/04/04 01:58:09;;;;;;;48.45;15.73;;;;;;;;;;5117262;28;20028;-65
2021/04/04 02:00:35;;;;;;;54.63;17.83;;;;;;;;;;5117183;28;20043;-65
2021/04/04 02:03:01;;;;;;;65.50;16.15;;;;;;;;;;5116732;28;20066;-65
2021/04/04 02:05:27;;;;;;;54.00;15.40;;;;;;;;;;5117389;28;20066;-65
2021/04/04 02:07:53;;;;;;;51.63;14.70;;;;;;;;;;5098832;28;20035;-65
2021/04/04 02:10:20;;;;;;;62.55;15.63;;;;;;;;;;5117196;28;20016;-66
2021/04/04 02:12:46;;;;;;;51.72;15.10;;;;;;;;;;5117064;28;20027;-65
2021/04/04 02:15:12;;;;;;;59.35;15.52;;;;;;;;;;5117163;28;20028;-65
2021/04/04 02:17:38;;;;;;;47.28;15.07;;;;;;;;;;5116731;28;20498;-66
2021/04/04 02:20:05;;;;;;;58.40;17.23;;;;;;;;;;5117168;28;20081;-65
2021/04/04 02:22:31;;;;;;;64.40;16.93;;;;;;;;;;5116312;28;20057;-65
2021/04/04 02:24:57;;;;;;;64.82;16.25;;;;;;;;;;5096648;28;20031;-65
2021/04/04 02:27:22;;;;;;;49.67;17.70;;;;;;;;;;5096462;28;20064;-65
2021/04/04 02:29:47;;;;;;;57.87;15.80;;;;;;;;;;5096496;28;20072;-65
2021/04/04 02:32:14;;;;;;;51.15;14.27;;;;;;;;;;5096303;28;20016;-65
2021/04/04 02:34:41;;;;;;;55.63;14.60;;;;;;;;;;5096351;28;20039;-65
2021/04/04 02:37:09;;;;;;;61.53;16.23;;;;;;;;;;5096327;28;20115;-65
2021/04/04 02:39:52;;;;;;;50.17;14.25;;;;;;;;;;5096350;28;20408;-65
2021/04/04 02:42:20;;;;;;;55.70;14.88;;;;;;;;;;5096100;28;20032;-65
2021/04/04 02:44:47;;;;;;;49.38;14.55;;;;;;;;;;5096218;28;20039;-65
2021/04/04 02:47:13;;;;;;;44.08;14.70;;;;;;;;;;5095989;28;20020;-65
2021/04/04 02:49:39;;;;;;;56.50;15.63;;;;;;;;;;5096120;28;20107;-65
2021/04/04 02:52:09;;;;;;;55.95;14.43;;;;;;;;;;5095931;28;20032;-66
2021/04/04 02:54:35;;;;;;;58.80;15.13;;;;;;;;;;5096032;28;20098;-65
2021/04/04 02:57:01;;;;;;;63.70;15.07;;;;;;;;;;5095548;28;20032;-65
2021/04/04 02:59:34;;;;;;;58.20;16.63;;;;;;;;;;5095870;28;20429;-65
2021/04/04 03:02:00;;;;;;;47.03;15.30;;;;;;;;;;5095624;28;20051;-65
2021/04/04 03:04:28;;;;;;;63.00;15.32;;;;;;;;;;5095687;28;20036;-65
2021/04/04 03:06:55;;;;;;;61.08;16.15;;;;;;;;;;5095373;28;20035;-65
2021/04/04 03:09:20;;;;;;;63.08;15.73;;;;;;;;;;5095392;28;20043;-65
2021/04/04 03:11:47;;;;;;;60.25;17.42;;;;;;;;;;5095472;28;20468;-65
2021/04/04 03:14:13;;;;;;;52.17;14.75;;;;;;;;;;5095654;28;20472;-65
2021/04/04 03:16:38;;;;;;;58.55;14.95;;;;;;;;;;5095527;28;20024;-65
2021/04/04 03:19:04;;;;;;;47.03;13.85;;;;;;;;;;5095555;28;20089;-65
2021/04/04 03:21:32;;;;;;;67.03;15.27;;;;;;;;;;5095408;28;20036;-65
2021/04/04 03:23:57;;;;;;;55.72;14.50;;;;;;;;;;5107952;28;20120;-65
2021/04/04 03:26:24;;;;;;;59.33;16.42;;;;;;;;;;5115749;28;20039;-65
2021/04/04 03:28:50;;;;;;;66.20;15.47;;;;;;;;;;5115788;28;20031;-65
2021/04/04 03:31:15;;;;;;;54.75;15.27;;;;;;;;;;5115934;28;20019;-65
2021/04/04 03:33:41;;;;;;;57.30;14.80;;;;;;;;;;5115370;28;20024;-65
2021/04/04 03:36:07;;;;;;;53.53;15.20;;;;;;;;;;5115454;28;20077;-66
2021/04/04 03:38:32;;;;;;;59.67;16.63;;;;;;;;;;5115427;28;20043;-65
2021/04/04 03:40:58;;;;;;;52.33;14.55;;;;;;;;;;5115526;28;20035;-65
2021/04/04 03:43:24;;;;;;;56.50;15.70;;;;;;;;;;5115314;28;20118;-65
2021/04/04 03:45:51;;;;;;;54.78;15.02;;;;;;;;;;5101736;28;20035;-65
2021/04/04 03:48:18;;;;;;;54.42;15.23;;;;;;;;;;5094833;28;20028;-65
2021/04/04 03:50:45;;;;;;;52.87;16.20;;;;;;;;;;5094948;28;20035;-65
2021/04/04 03:53:11;;;;;;;47.50;15.45;;;;;;;;;;5094785;28;20035;-65
2021/04/04 03:55:36;;;;;;;61.87;15.93;;;;;;;;;;5094865;28;20024;-65
2021/04/04 03:58:02;;;;;;;58.73;16.47;;;;;;;;;;5094851;28;20036;-65
2021/04/04 04:00:28;;;;;;;61.97;17.03;;;;;;;;;;5094695;28;20020;-65
2021/04/04 04:02:54;;;;;;;55.20;16.08;;;;;;;;;;5094538;28;20039;-65
2021/04/04 04:05:20;;;;;;;52.03;14.73;;;;;;;;;;5094642;28;20024;-65
2021/04/04 04:07:46;;;;;;;55.83;15.85;;;;;;;;;;5094479;28;20016;-65
2021/04/04 04:10:12;;;;;;;54.75;14.77;;;;;;;;;;5094566;28;20028;-65
2021/04/04 04:12:39;;;;;;;59.43;16.40;;;;;;;;;;5094080;28;20529;-65
2021/04/04 04:15:05;;;;;;;57.17;17.70;;;;;;;;;;5094255;28;20468;-65
2021/04/04 04:17:31;;;;;;;58.20;16.92;;;;;;;;;;5093609;28;20063;-65
2021/04/04 04:19:56;;;;;;;72.47;16.97;;;;;;;;;;5094389;28;20032;-65
2021/04/04 04:22:22;;;;;;;59.90;16.58;;;;;;;;;;5093867;28;20024;-65
2021/04/04 04:24:49;;;;;;;60.80;17.65;;;;;;;;;;5113794;28;20036;-65
2021/04/04 04:27:15;;;;;;;58.07;17.27;;;;;;;;;;5084085;28;20036;-65
2021/04/04 04:29:41;;;;;;;63.35;17.20;;;;;;;;;;5073879;28;20032;-65
2021/04/04 04:32:06;;;;;;;55.00;16.97;;;;;;;;;;5073819;28;20032;-65
2021/04/04 04:34:32;;;;;;;68.33;17.30;;;;;;;;;;5073890;28;20033;-65
2021/04/04 04:36:58;;;;;;;64.13;17.23;;;;;;;;;;5073622;28;20396;-65
2021/04/04 04:39:24;;;;;;;48.85;15.73;;;;;;;;;;5073790;28;20481;-65
2021/04/04 04:41:51;;;;;;;72.22;17.45;;;;;;;;;;5073476;28;20035;-65
2021/04/04 04:44:22;;;;;;;55.03;16.40;;;;;;;;;;5073411;28;20473;-65
2021/04/04 04:46:47;;;;;;;49.25;15.68;;;;;;;;;;5073468;28;20028;-65
2021/04/04 04:49:12;;;;;;;60.83;16.97;;;;;;;;;;5073569;28;20039;-65
2021/04/04 04:51:38;;;;;;;60.30;19.02;;;;;;;;;;5073406;28;20357;-65
2021/04/04 04:54:04;;;;;;;47.97;16.58;;;;;;;;;;5055621;28;20035;-65
2021/04/04 04:56:29;;;;;;;55.33;16.57;;;;;;;;;;5073380;28;20029;-65
2021/04/04 04:58:55;;;;;;;63.77;17.33;;;;;;;;;;5073434;28;20441;-65
2021/04/04 05:01:23;;;;;;;52.50;15.33;;;;;;;;;;5073326;28;20457;-65
2021/04/04 05:03:48;;;;;;;45.17;14.70;;;;;;;;;;5073345;28;20048;-65
2021/04/04 05:06:14;;;;;;;58.50;15.15;;;;;;;;;;5073250;28;20013;-65
2021/04/04 05:08:43;;;;;;;53.50;14.52;;;;;;;;;;5073308;28;20028;-65
2021/04/04 05:11:10;;;;;;;48.72;16.33;;;;;;;;;;5072971;28;20033;-65
2021/04/04 05:13:38;;;;;;;53.73;15.60;;;;;;;;;;5073459;28;20048;-65
2021/04/04 05:16:06;;;;;;;61.72;17.13;;;;;;;;;;5073346;28;20032;-65
2021/04/04 05:18:31;;;;;;;54.47;17.23;;;;;;;;;;5073118;28;20055;-65
2021/04/04 05:20:56;;;;;;;65.75;18.00;;;;;;;;;;5073233;28;20445;-65
2021/04/04 05:23:23;;;;;;;67.33;16.33;;;;;;;;;;5087970;28;20130;-65
2021/04/04 05:25:51;;;;;;;51.53;15.95;;;;;;;;;;5113435;28;20422;-65
2021/04/04 05:28:17;;;;;;;68.50;18.53;;;;;;;;;;5113530;28;20098;-65
2021/04/04 05:30:42;;;;;;;57.30;17.00;;;;;;;;;;5113348;28;20028;-65
2021/04/04 05:33:08;;;;;;;59.97;16.27;;;;;;;;;;5113802;28;20087;-65
2021/04/04 05:35:36;;;;;;;62.00;16.63;;;;;;;;;;5113605;28;20015;-65
2021/04/04 05:38:01;;;;;;;63.93;17.50;;;;;;;;;;5113319;28;20032;-65
2021/04/04 05:40:28;;;;;;;62.90;16.33;;;;;;;;;;5113512;28;20031;-65
2021/04/04 05:42:53;;;;;;;62.83;16.13;;;;;;;;;;5113059;28;20459;-65
2021/04/04 05:45:45;;;;;;;61.63;16.55;;;;;;;;;;5113541;28;20031;-65
2021/04/04 05:48:35;;;;;;;57.55;16.38;;;;;;;;;;5108822;28;20047;-65
2021/04/04 05:51:17;;;;;;;51.17;17.30;;;;;;;;;;5113496;28;20061;-65
2021/04/04 05:53:55;;;;;;;47.33;14.33;;;;;;;;;;5113272;28;20047;-65
2021/04/04 05:56:39;;;;;;;54.90;16.43;;;;;;;;;;5113371;28;20030;-65
2021/04/04 05:59:06;;;;;;;58.43;15.87;;;;;;;;;;5113336;28;20039;-65
2021/04/04 06:01:31;;;;;;;48.28;15.63;;;;;;;;;;5113286;28;20051;-65
2021/04/04 06:04:15;;;;;;;57.35;15.93;;;;;;;;;;5113278;28;20499;-65
2021/04/04 06:06:46;;;;;;;55.28;16.52;;;;;;;;;;5113129;28;20455;-65
2021/04/04 06:09:24;;;;;;;49.03;15.45;;;;;;;;;;5113321;28;20032;-65
2021/04/04 06:11:58;;;;;;;59.73;16.07;;;;;;;;;;5113123;28;20036;-65
2021/04/04 06:14:53;;;;;;;56.13;15.32;;;;;;;;;;5093662;28;20028;-65
2021/04/04 06:17:20;;;;;;;57.00;14.88;;;;;;;;;;5092702;28;20039;-65
2021/04/04 06:20:01;;;;;;;44.42;13.70;;;;;;;;;;5092534;28;20488;-66
2021/04/04 06:22:38;;;;;;;45.90;13.80;;;;;;;;;;5092298;28;20032;-66
2021/04/04 06:25:08;;;;;;;35.58;11.85;;;;;;;;;;5072528;28;20036;-66
2021/04/04 06:27:35;;;;;;;33.38;10.25;;;;;;;;;;5072569;28;20025;-66
2021/04/04 06:30:21;;;;;;;28.98;11.00;;;;;;;;;;5072532;28;20037;-66
2021/04/04 06:32:58;;;;;;;37.05;11.25;;;;;;;;;;5072469;28;20124;-66
2021/04/04 06:35:38;;;;;;;644.95;44.95;;;;;;;;;;5072459;28;20158;-66
2021/04/04 06:38:22;;;;;;;112.25;12.90;;;;;;;;;;5072289;28;20044;-66
2021/04/04 06:40:57;;;;;;;434.92;28.33;;;;;;;;;;5074032;28;20086;-67
2021/04/04 06:43:28;;;;;;;782.45;51.38;;;;;;;;;;5075680;28;20435;-67
2021/04/04 06:46:12;;;;;;;695.33;40.28;;;;;;;;;;5075949;28;20029;-67
2021/04/04 06:48:46;;;;;;;337.85;23.35;;;;;;;;;;5076008;28;20116;-67
2021/04/04 06:51:15;;;;;;;132.27;13.27;;;;;;;;;;5076950;28;20056;-67
2021/04/04 06:53:50;;;;;;;195.05;15.77;;;;;;;;;;5084831;28;20099;-67
2021/04/04 06:56:23;;;;;;;129.05;11.88;;;;;;;;;;5096019;28;20071;-67
2021/04/04 06:58:58;;;;;;;98.38;9.45;;;;;;;;;;5095515;28;20476;-65
2021/04/04 07:01:36;;;;;;;17.17;7.77;;;;;;;;;;5095999;28;20047;-65
2021/04/04 07:04:05;;;;;;;19.75;7.63;;;;;;;;;;5095565;28;20039;-65
2021/04/04 07:06:31;;;;;;;18.35;8.10;;;;;;;;;;5095742;28;20433;-65
2021/04/04 07:09:07;;;;;;;19.40;7.20;;;;;;;;;;5095863;28;20103;-65
2021/04/04 07:11:49;;;;;;;14.82;6.53;;;;;;;;;;5095596;28;20093;-65
2021/04/04 07:14:39;;;;;;;17.60;7.35;;;;;;;;;;5095746;28;20035;-65
2021/04/04 07:17:04;;;;;;;16.88;7.25;;;;;;;;;;5095645;28;20028;-65
2021/04/04 07:19:47;;;;;;;17.02;7.20;;;;;;;;;;5095273;28;20119;-65
2021/04/04 07:22:31;;;;;;;15.70;6.78;;;;;;;;;;5094691;28;20445;-66
2021/04/04 07:25:03;;;;;;;18.35;6.88;;;;;;;;;;5075180;28;20035;-65
2021/04/04 07:27:46;;;;;;;17.80;7.20;;;;;;;;;;5075211;28;20095;-65
2021/04/04 07:30:30;;;;;;;14.15;6.13;;;;;;;;;;5075088;28;20102;-66
2021/04/04 07:33:16;;;;;;;15.38;6.03;;;;;;;;;;5078585;28;20085;-66
2021/04/04 07:35:41;;;;;;;12.40;6.72;;;;;;;;;;5086347;28;20040;-66
2021/04/04 07:38:19;;;;;;;12.05;6.03;;;;;;;;;;5090633;28;20047;-66
2021/04/04 07:40:47;;;;;;;12.65;6.57;;;;;;;;;;5085803;28;20035;-66
2021/04/04 07:43:18;;;;;;;15.90;6.70;;;;;;;;;;5089618;28;20042;-66
2021/04/04 07:45:48;;;;;;;16.05;7.30;;;;;;;;;;5106001;28;20032;-66
2021/04/04 07:48:23;;;;;;;21.98;7.28;;;;;;;;;;5098085;28;20035;-66
2021/04/04 07:51:09;;;;;;;16.10;6.68;;;;;;;;;;5094915;28;20042;-66
2021/04/04 07:53:53;;;;;;;15.18;6.88;;;;;;;;;;5103460;28;20477;-66
2021/04/04 07:56:27;;;;;;;14.90;6.70;;;;;;;;;;5105279;28;20020;-66
2021/04/04 07:59:12;;;;;;;14.30;6.70;;;;;;;;;;5105038;28;20038;-66
2021/04/04 08:02:01;;;;;;;17.95;6.95;;;;;;;;;;5104450;28;20038;-66
2021/04/04 08:04:42;;;;;;;15.18;6.97;;;;;;;;;;5039554;28;20086;-66
2021/04/04 08:07:10;;;;;;;18.63;7.43;;;;;;;;;;5080314;28;20047;-66
2021/04/04 08:09:45;;;;;;;19.35;7.63;;;;;;;;;;5088868;28;20024;-66
2021/04/04 08:12:13;;;;;;;20.00;7.72;;;;;;;;;;5089104;28;20039;-66
2021/04/04 08:14:50;;;;;;;16.50;6.90;;;;;;;;;;5089171;28;20544;-66
2021/04/04 08:17:15;;;;;;;21.95;6.93;;;;;;;;;;5088698;28;20446;-67
2021/04/04 08:19:42;;;;;;;14.70;6.85;;;;;;;;;;5095442;28;20036;-67
2021/04/04 08:22:10;;;;;;;18.40;7.20;;;;;;;;;;5096281;28;20497;-66
2021/04/04 08:25:08;;;;;;;18.23;7.57;;;;;;;;;;5093376;28;20106;-66
2021/04/04 08:27:34;;;;;;;15.52;6.47;;;;;;;;;;5038112;28;20047;-67
2021/04/04 08:29:59;;;;;;;20.73;9.38;;;;;;;;;;5089225;28;20035;-66
2021/04/04 08:32:32;;;;;;;23.08;9.82;;;;;;;;;;5089090;28;20034;-67
2021/04/04 08:34:58;;;;;;;29.80;12.68;;;;;;;;;;5087772;28;20546;-66
2021/04/04 08:37:27;;;;;;;24.45;12.70;;;;;;;;;;5088942;28;20044;-67
2021/04/04 08:39:54;;;;;;;23.83;8.63;;;;;;;;;;5088722;28;20512;-67
2021/04/04 08:42:20;;;;;;;16.85;7.82;;;;;;;;;;5088538;28;20038;-66
2021/04/04 08:44:54;;;;;;;16.77;7.65;;;;;;;;;;5088466;28;20040;-66
2021/04/04 08:47:26;;;;;;;17.77;6.77;;;;;;;;;;5087820;28;20591;-67
2021/04/04 08:49:52;;;;;;;20.50;7.53;;;;;;;;;;5088446;28;20036;-67
2021/04/04 08:52:23;;;;;;;20.98;7.65;;;;;;;;;;5089142;28;20028;-67
2021/04/04 08:54:51;;;;;;;21.83;8.23;;;;;;;;;;5087978;28;20030;-67
2021/04/04 08:57:20;;;;;;;18.30;7.07;;;;;;;;;;5087879;28;20032;-67
2021/04/04 08:59:47;;;;;;;15.77;6.18;;;;;;;;;;5084293;28;20118;-67
2021/04/04 09:02:14;;;;;;;19.60;6.55;;;;;;;;;;5085531;28;20485;-66
2021/04/04 09:04:43;;;;;;;28.67;7.15;;;;;;;;;;5084747;28;20040;-67
2021/04/04 09:07:09;;;;;;;51.53;20.80;;;;;;;;;;5084836;28;20068;-67
2021/04/04 09:09:36;;;;;;;30.45;10.10;;;;;;;;;;5084919;28;20055;-66
2021/04/04 09:12:01;;;;;;;17.83;6.85;;;;;;;;;;5085076;28;20043;-66
2021/04/04 09:14:33;;;;;;;19.85;7.03;;;;;;;;;;5085590;28;20061;-67
2021/04/04 09:16:59;;;;;;;22.65;6.80;;;;;;;;;;5080381;28;20039;-67
2021/04/04 09:19:28;;;;;;;23.88;7.68;;;;;;;;;;5072200;28;20040;-67
2021/04/04 09:21:54;;;;;;;26.38;11.32;;;;;;;;;;5065688;28;20103;-67
2021/04/04 09:24:20;;;;;;;23.75;10.10;;;;;;;;;;5087486;28;20311;-67
2021/04/04 09:26:46;;;;;;;24.25;9.52;;;;;;;;;;5085006;28;20032;-66
2021/04/04 09:29:11;;;;;;;21.38;7.57;;;;;;;;;;5085657;28;20454;-67
2021/04/04 09:31:37;;;;;;;21.38;7.95;;;;;;;;;;5086586;28;20016;-67
2021/04/04 09:34:07;;;;;;;20.20;7.50;;;;;;;;;;5085424;28;20460;-66
2021/04/04 09:36:40;;;;;;;16.95;6.53;;;;;;;;;;5082730;28;20332;-67
2021/04/04 09:39:07;;;;;;;16.88;6.90;;;;;;;;;;5064631;28;20056;-67
2021/04/04 09:41:33;;;;;;;21.40;7.78;;;;;;;;;;5064730;28;20540;-67
2021/04/04 09:44:05;;;;;;;20.27;8.35;;;;;;;;;;5093174;28;20054;-67
2021/04/04 09:46:30;;;;;;;25.58;8.52;;;;;;;;;;5088683;28;20544;-67
2021/04/04 09:48:55;;;;;;;19.02;8.35;;;;;;;;;;5082011;28;20123;-67
2021/04/04 09:51:21;;;;;;;20.40;8.70;;;;;;;;;;5081398;28;20049;-67
2021/04/04 09:53:47;;;;;;;20.80;7.80;;;;;;;;;;5083240;28;20044;-67
2021/04/04 09:56:15;;;;;;;24.23;7.93;;;;;;;;;;5083403;28;20072;-67
2021/04/04 09:58:41;;;;;;;16.67;7.22;;;;;;;;;;5091526;28;20016;-67
2021/04/04 10:01:13;;;;;;;20.13;8.05;;;;;;;;;;5082285;28;20032;-67
2021/04/04 10:03:38;;;;;;;20.75;8.98;;;;;;;;;;5082051;28;20488;-67
2021/04/04 10:06:09;;;;;;;29.13;9.25;;;;;;;;;;5083146;28;20026;-66
2021/04/04 10:08:35;;;;;;;22.55;9.23;;;;;;;;;;5081794;28;20036;-67
2021/04/04 10:11:13;;;;;;;18.95;7.93;;;;;;;;;;5081096;28;20451;-66
2021/04/04 10:13:39;;;;;;;18.58;8.93;;;;;;;;;;5081718;28;20044;-67
2021/04/04 10:16:16;;;;;;;18.52;9.02;;;;;;;;;;5084737;28;20139;-67
2021/04/04 10:18:57;;;;;;;28.25;9.25;;;;;;;;;;5085357;28;20047;-66
2021/04/04 10:21:23;;;;;;;16.92;7.97;;;;;;;;;;5085970;28;20066;-67
2021/04/04 10:23:50;;;;;;;27.70;9.73;;;;;;;;;;5086007;28;20771;-67
2021/04/04 10:26:18;;;;;;;21.02;8.80;;;;;;;;;;5089380;28;20091;-67
2021/04/04 10:28:56;;;;;;;28.70;8.95;;;;;;;;;;5106148;28;20090;-66
2021/04/04 10:31:22;;;;;;;21.70;8.25;;;;;;;;;;5106666;28;20036;-66
2021/04/04 10:33:55;;;;;;;19.42;8.60;;;;;;;;;;5105794;28;20043;-66
2021/04/04 10:36:21;;;;;;;21.58;7.82;;;;;;;;;;5106248;28;20035;-66
2021/04/04 10:38:46;;;;;;;22.77;8.68;;;;;;;;;;5100788;28;20062;-66
2021/04/04 10:41:23;;;;;;;25.90;7.57;;;;;;;;;;5086136;28;20036;-66
2021/04/04 10:43:50;;;;;;;25.90;6.32;;;;;;;;;;5083992;28;21068;-66
2021/04/04 10:46:16;;;;;;;21.83;5.88;;;;;;;;;;5098972;28;20035;-66
2021/04/04 10:48:42;;;;;;;18.92;5.22;;;;;;;;;;5106309;28;20085;-65
2021/04/04 10:51:08;;;;;;;20.88;6.10;;;;;;;;;;5106119;28;20032;-65
2021/04/04 10:53:34;;;;;;;24.35;5.85;;;;;;;;;;5101882;28;20101;-68
2021/04/04 10:56:00;;;;;;;20.35;5.38;;;;;;;;;;5077046;28;20023;-68
2021/04/04 10:58:27;;;;;;;18.70;5.97;;;;;;;;;;5084732;28;20042;-67
2021/04/04 11:00:53;;;;;;;16.00;5.28;;;;;;;;;;5086165;28;20612;-68
2021/04/04 11:03:19;;;;;;;20.10;5.80;;;;;;;;;;5084459;28;20024;-68
2021/04/04 11:05:44;;;;;;;21.52;6.03;;;;;;;;;;5085134;28;20028;-68
2021/04/04 11:08:09;;;;;;;18.45;5.80;;;;;;;;;;5084890;28;20199;-68
2021/04/04 11:10:35;;;;;;;16.42;5.22;;;;;;;;;;5091874;28;20104;-68
2021/04/04 11:13:01;;;;;;;24.88;6.47;;;;;;;;;;5085100;28;20035;-68
2021/04/04 11:15:29;;;;;;;18.40;5.60;;;;;;;;;;5085049;28;20035;-68
2021/04/04 11:17:54;;;;;;;18.90;5.47;;;;;;;;;;5084022;28;20020;-68
2021/04/04 11:20:20;;;;;;;23.55;7.05;;;;;;;;;;5084967;28;20516;-67
2021/04/04 11:22:46;;;;;;;23.55;8.60;;;;;;;;;;5084104;28;20032;-67
2021/04/04 11:25:15;;;;;;;36.58;9.98;;;;;;;;;;5083783;28;20020;-68
2021/04/04 11:27:47;;;;;;;28.95;10.85;;;;;;;;;;5087517;28;20031;-67
2021/04/04 11:30:32;;;;;;;26.65;8.95;;;;;;;;;;5085814;28;20495;-67
2021/04/04 11:33:18;;;;;;;29.83;11.32;;;;;;;;;;5083358;28;20475;-67
2021/04/04 11:35:43;;;;;;;;;;;;;;;;;;5084626;28;20115;-67
2021/04/04 11:38:08;;;;;;;;;;;;;;;;;;5092098;28;19920;-67
2021/04/04 11:40:34;;;;;;;26.50;9.57;;;;;;;;;;5084544;28;19908;-67
2021/04/04 11:43:18;;;;;;;25.50;9.15;;;;;;;;;;5084063;28;20040;-67
2021/04/04 11:45:44;;;;;;;36.03;10.35;;;;;;;;;;5091754;28;20032;-67
2021/04/04 11:48:28;;;;;;;31.55;11.43;;;;;;;;;;5085440;28;20043;-67
2021/04/04 11:50:53;;;;;;;24.48;10.63;;;;;;;;;;5084644;28;20528;-67
2021/04/04 11:53:38;;;;;;;32.58;11.55;;;;;;;;;;5084495;28;20074;-68
2021/04/04 11:56:04;;;;;;;28.75;11.25;;;;;;;;;;5082820;28;20024;-67
2021/04/04 11:58:29;;;;;;;37.28;10.98;;;;;;;;;;5088629;28;20031;-67
2021/04/04 12:00:56;;;;;;;34.50;10.73;;;;;;;;;;5084000;28;20458;-68
2021/04/04 12:03:24;;;;;;;30.70;11.15;;;;;;;;;;5084044;28;20034;-67
2021/04/04 12:05:49;;;;;;;33.25;10.63;;;;;;;;;;5084304;28;20044;-67
2021/04/04 12:08:15;;;;;;;24.95;10.52;;;;;;;;;;5081994;28;20024;-68
2021/04/04 12:10:41;;;;;;;30.20;10.25;;;;;;;;;;5083653;28;20038;-67
2021/04/04 12:13:13;;;;;;;29.55;11.15;;;;;;;;;;5090079;28;20047;-67
2021/04/04 12:15:38;;;;;;;30.25;10.52;;;;;;;;;;5089222;28;20023;-67
2021/04/04 12:18:03;;;;;;;25.98;10.48;;;;;;;;;;5082562;28;20028;-67
2021/04/04 12:20:32;;;;;;;31.95;10.73;;;;;;;;;;5084036;28;20039;-67
2021/04/04 12:22:57;;;;;;;33.63;10.98;;;;;;;;;;5083878;28;20380;-67
2021/04/04 12:25:24;;;;;;;27.90;9.77;;;;;;;;;;5083828;28;20042;-67
2021/04/04 12:27:50;;;;;;;31.90;10.43;;;;;;;;;;5082716;28;20173;-67
2021/04/04 12:30:35;;;;;;;24.35;9.45;;;;;;;;;;5082980;28;20016;-67
2021/04/04 12:33:20;;;;;;;32.65;9.85;;;;;;;;;;5089143;28;20056;-67
2021/04/04 12:35:47;;;;;;;21.83;7.43;;;;;;;;;;5086608;28;20109;-67
2021/04/04 12:38:29;;;;;;;20.83;7.68;;;;;;;;;;5082320;28;20071;-67
2021/04/04 12:40:55;;;;;;;21.20;9.25;;;;;;;;;;5082456;28;20034;-67
2021/04/04 12:43:21;;;;;;;32.75;8.95;;;;;;;;;;5090858;28;20078;-67
2021/04/04 12:45:46;;;;;;;16.70;4.88;;;;;;;;;;5091072;28;20598;-67
2021/04/04 12:48:13;;;;;;;33.10;8.88;;;;;;;;;;5084237;28;20123;-67
2021/04/04 12:50:38;;;;;;;28.02;10.20;;;;;;;;;;5083476;28;20031;-67
2021/04/04 12:53:04;;;;;;;30.75;9.82;;;;;;;;;;5083657;28;20044;-67
2021/04/04 12:55:30;;;;;;;29.08;10.52;;;;;;;;;;5090379;28;20031;-67
2021/04/04 12:58:15;;;;;;;24.90;10.52;;;;;;;;;;5082296;28;20124;-67
2021/04/04 13:00:42;;;;;;;32.33;10.52;;;;;;;;;;5063188;28;20411;-67
2021/04/04 13:03:15;;;;;;;29.88;10.20;;;;;;;;;;5082683;28;20380;-67
2021/04/04 13:05:43;;;;;;;28.13;10.27;;;;;;;;;;5082662;28;20031;-67
2021/04/04 13:08:10;;;;;;;27.67;9.25;;;;;;;;;;5081888;28;20032;-67
2021/04/04 13:10:35;;;;;;;25.48;9.82;;;;;;;;;;5080415;28;20035;-67
2021/04/04 13:13:07;;;;;;;29.42;9.98;;;;;;;;;;5081783;28;20036;-67
2021/04/04 13:15:32;;;;;;;24.73;9.70;;;;;;;;;;5082559;28;20032;-67
2021/04/04 13:17:57;;;;;;;28.08;9.18;;;;;;;;;;5081808;28;20039;-67
2021/04/04 13:20:24;;;;;;;20.73;8.82;;;;;;;;;;5082902;28;20444;-67
2021/04/04 13:22:50;;;;;;;28.25;10.00;;;;;;;;;;5085761;28;20205;-67
2021/04/04 13:25:15;;;;;;;23.58;9.00;;;;;;;;;;5092383;28;20115;-67
2021/04/04 13:27:40;;;;;;;33.38;9.77;;;;;;;;;;5086330;28;20782;-67
2021/04/04 13:30:06;;;;;;;23.27;8.70;;;;;;;;;;5083736;28;20032;-67
2021/04/04 13:32:44;;;;;;;32.95;10.45;;;;;;;;;;5082686;28;20119;-67
2021/04/04 13:35:10;;;;;;;37.33;11.27;;;;;;;;;;5082763;28;20718;-67
2021/04/04 13:37:39;;;;;;;28.55;9.32;;;;;;;;;;5082341;28;20036;-67
2021/04/04 13:40:06;;;;;;;33.42;10.27;;;;;;;;;;5081797;28;20071;-67
2021/04/04 13:42:45;;;;;;;31.50;9.90;;;;;;;;;;5082353;28;20056;-67
2021/04/04 13:45:31;;;;;;;26.05;10.57;;;;;;;;;;5084946;28;20028;-67
2021/04/04 13:47:56;;;;;;;25.70;9.75;;;;;;;;;;5085371;28;20089;-67
2021/04/04 13:50:22;;;;;;;26.15;9.90;;;;;;;;;;5083348;28;20036;-67
2021/04/04 13:52:47;;;;;;;29.25;9.80;;;;;;;;;;5085890;28;20032;-67
2021/04/04 13:55:24;;;;;;;27.80;10.98;;;;;;;;;;5086045;28;20454;-68
2021/04/04 13:57:49;;;;;;;26.40;9.45;;;;;;;;;;5091521;28;20039;-67
2021/04/04 14:00:15;;;;;;;32.10;10.88;;;;;;;;;;5086226;28;20028;-67
2021/04/04 14:02:41;;;;;;;28.23;10.02;;;;;;;;;;5086404;28;20054;-67
2021/04/04 14:05:26;;;;;;;21.95;9.55;;;;;;;;;;5085270;28;20493;-67
2021/04/04 14:07:51;;;;;;;32.33;10.35;;;;;;;;;;5085028;28;20129;-67
2021/04/04 14:10:17;;;;;;;27.80;10.70;;;;;;;;;;5101348;28;20141;-67
2021/04/04 14:12:42;;;;;;;33.05;10.07;;;;;;;;;;5086655;28;20020;-67
2021/04/04 14:15:08;;;;;;;27.17;11.38;;;;;;;;;;5085357;28;20032;-67
2021/04/04 14:17:33;;;;;;;34.35;10.82;;;;;;;;;;5083741;28;20036;-67
2021/04/04 14:19:59;;;;;;;35.05;10.95;;;;;;;;;;5084848;28;20032;-67
2021/04/04 14:22:24;;;;;;;28.40;10.57;;;;;;;;;;5086622;28;20031;-67
2021/04/04 14:24:49;;;;;;;31.00;10.55;;;;;;;;;;5091437;28;20031;-67
2021/04/04 14:27:14;;;;;;;27.38;11.82;;;;;;;;;;5084485;28;20753;-67
2021/04/04 14:29:40;;;;;;;31.55;10.80;;;;;;;;;;5085622;28;20035;-67
2021/04/04 14:32:06;;;;;;;35.35;11.88;;;;;;;;;;5084905;28;20624;-67